Time;durP1;ratioP1;P1;durP2;ratioP2;P2;SDS_P1;SDS_P2;PMS_P1;PMS_P2;Temp;Humidity;BMP_temperature;BMP_pressure;BME280_temperature;BME280_humidity;BME280_pressure;Samples;Min_cycle;Max_cycle;Signal;HPM_P1;HPM_P2
2023/03/09 00:01:37;;;;;;;45.38;28.30;;;;;;;3.98;100.00;98231.81;4981963;28;20114;-79
2023/03/09 00:04:03;;;;;;;51.10;30.48;;;;;;;3.95;100.00;98239.91;4978689;28;20137;-81
2023/03/09 00:06:31;;;;;;;46.90;29.10;;;;;;;4.04;100.00;98288.06;4976123;28;20057;-79
2023/03/09 00:08:58;;;;;;;45.33;26.10;;;;;;;3.92;100.00;98323.06;4970925;28;20070;-79
2023/03/09 00:11:26;;;;;;;48.58;28.98;;;;;;;3.82;100.00;98320.66;4974327;28;20134;-80
2023/03/09 00:13:53;;;;;;;48.83;29.85;;;;;;;3.83;100.00;98311.94;4974210;28;20127;-78
2023/03/09 00:16:22;;;;;;;48.70;29.63;;;;;;;3.80;100.00;98309.69;4979312;28;20114;-80
2023/03/09 00:18:51;;;;;;;50.38;30.33;;;;;;;3.78;100.00;98303.88;4981585;28;20510;-78
2023/03/09 00:21:34;;;;;;;47.33;29.02;;;;;;;3.78;100.00;98292.75;4969975;28;20079;-79
2023/03/09 00:24:01;;;;;;;47.90;29.35;;;;;;;3.69;100.00;98288.59;4981455;28;20043;-78
2023/03/09 00:26:29;;;;;;;47.10;29.83;;;;;;;3.56;100.00;98271.84;4974989;28;20134;-79
2023/03/09 00:28:56;;;;;;;50.30;30.92;;;;;;;3.53;100.00;98277.34;4980213;28;20142;-81
2023/03/09 00:31:23;;;;;;;51.38;30.75;;;;;;;3.52;100.00;98255.03;4980358;28;20055;-78
2023/03/09 00:33:50;;;;;;;53.47;30.92;;;;;;;3.49;100.00;98242.44;4964310;28;20177;-80
2023/03/09 00:36:17;;;;;;;49.95;30.10;;;;;;;3.54;100.00;98249.69;4974507;28;20074;-80
2023/03/09 00:38:49;;;;;;;47.05;29.67;;;;;;;3.53;100.00;98250.69;4974617;28;20054;-79
2023/03/09 00:41:16;;;;;;;45.72;28.65;;;;;;;3.58;100.00;98261.31;4975815;28;20093;-80
2023/03/09 00:43:44;;;;;;;46.88;30.25;;;;;;;3.59;100.00;98265.53;4982442;28;20062;-80
2023/03/09 00:46:11;;;;;;;44.20;29.63;;;;;;;3.65;100.00;98270.81;4983591;28;20082;-79
2023/03/09 00:48:38;;;;;;;43.95;28.25;;;;;;;3.71;100.00;98284.88;4973711;28;20137;-79
2023/03/09 00:51:06;;;;;;;43.58;28.60;;;;;;;3.83;100.00;98298.19;4977469;28;20062;-80
2023/03/09 00:53:32;;;;;;;47.70;30.13;;;;;;;3.79;100.00;98300.31;4976005;28;20109;-80
2023/03/09 00:56:02;;;;;;;50.10;29.38;;;;;;;3.77;100.00;98294.53;4964792;28;20134;-80
2023/03/09 00:58:29;;;;;;;43.75;29.17;;;;;;;3.67;100.00;98292.16;4977870;28;20080;-79
2023/03/09 01:00:57;;;;;;;39.75;27.30;;;;;;;3.59;100.00;98283.63;4972488;28;20461;-81
2023/03/09 01:03:24;;;;;;;42.15;27.85;;;;;;;3.64;100.00;98291.69;4981535;28;20163;-80
2023/03/09 01:05:51;;;;;;;43.75;29.00;;;;;;;3.58;100.00;98297.53;4971363;28;20143;-79
2023/03/09 01:08:17;;;;;;;43.85;29.30;;;;;;;3.61;100.00;98297.19;4972975;28;20516;-81
2023/03/09 01:10:44;;;;;;;43.88;28.33;;;;;;;3.48;100.00;98302.09;4971593;28;20115;-81
2023/03/09 01:13:11;;;;;;;43.10;27.85;;;;;;;3.48;100.00;98308.06;4975879;28;20082;-80
2023/03/09 01:15:38;;;;;;;45.70;29.23;;;;;;;3.51;100.00;98320.66;4968983;28;20106;-79
2023/03/09 01:18:06;;;;;;;43.65;28.65;;;;;;;3.48;100.00;98323.56;4971652;28;20126;-79
2023/03/09 01:20:32;;;;;;;47.22;30.58;;;;;;;3.44;100.00;98311.94;4978008;28;20133;-80
2023/03/09 01:22:59;;;;;;;50.72;29.55;;;;;;;3.42;100.00;98316.47;4969228;28;20126;-78
2023/03/09 01:25:26;;;;;;;46.50;30.65;;;;;;;3.47;100.00;98319.38;4964913;28;20055;-78
2023/03/09 01:27:53;;;;;;;47.97;29.80;;;;;;;3.47;100.00;98305.66;4971560;28;20059;-79
2023/03/09 01:30:20;;;;;;;43.38;27.70;;;;;;;3.47;100.00;98301.28;4971057;28;20158;-79
2023/03/09 01:32:47;;;;;;;47.30;28.08;;;;;;;3.44;100.00;98308.56;4971904;28;20149;-79
2023/03/09 01:35:15;;;;;;;47.30;28.92;;;;;;;3.43;100.00;98305.16;4972024;28;20054;-79
2023/03/09 01:37:42;;;;;;;46.35;28.55;;;;;;;3.39;100.00;98319.41;4979923;28;20126;-80
2023/03/09 01:40:11;;;;;;;44.30;28.23;;;;;;;3.25;100.00;98315.75;4977265;28;20075;-80
2023/03/09 01:42:37;;;;;;;42.97;28.30;;;;;;;3.26;100.00;98312.19;4976595;28;20050;-81
2023/03/09 01:45:42;;;;;;;37.97;26.30;;;;;;;3.34;100.00;98322.47;4972604;28;20821;-80
2023/03/09 01:48:08;;;;;;;41.10;27.33;;;;;;;3.36;100.00;98319.72;4980123;28;20050;-81
2023/03/09 01:50:36;;;;;;;42.13;26.88;;;;;;;3.24;100.00;98321.09;4974024;28;20569;-80
2023/03/09 01:53:07;;;;;;;44.72;27.13;;;;;;;3.27;100.00;98341.44;4971540;28;20051;-80
2023/03/09 01:55:39;;;;;;;39.42;27.10;;;;;;;3.30;100.00;98338.50;4973276;28;20565;-80
2023/03/09 01:58:08;;;;;;;40.10;25.75;;;;;;;3.31;100.00;98338.31;4978663;28;20050;-81
2023/03/09 02:00:36;;;;;;;38.28;25.73;;;;;;;3.29;100.00;98355.00;4978772;28;20130;-79
2023/03/09 02:03:08;;;;;;;38.03;24.55;;;;;;;3.29;100.00;98370.50;4978062;28;20142;-81
2023/03/09 02:05:41;;;;;;;40.90;24.77;;;;;;;3.29;100.00;98381.66;4971287;28;20141;-80
2023/03/09 02:08:09;;;;;;;42.65;27.25;;;;;;;3.30;100.00;98388.44;4976415;28;20114;-78
2023/03/09 02:10:38;;;;;;;46.38;27.98;;;;;;;3.37;100.00;98393.72;4969562;28;20051;-78
2023/03/09 02:13:09;;;;;;;44.45;27.30;;;;;;;3.27;100.00;98404.28;4974115;28;20509;-78
2023/03/09 02:15:36;;;;;;;57.22;31.15;;;;;;;3.19;100.00;98411.22;4976369;28;20065;-78
2023/03/09 02:18:03;;;;;;;61.72;32.58;;;;;;;3.15;100.00;98422.84;4961256;28;20478;-79
2023/03/09 02:20:37;;;;;;;57.80;31.20;;;;;;;3.05;100.00;98440.28;4971141;28;20491;-79
2023/03/09 02:23:13;;;;;;;61.05;33.22;;;;;;;2.96;100.00;98444.63;4965809;28;20185;-79
2023/03/09 02:25:48;;;;;;;62.33;32.03;;;;;;;2.92;100.00;98440.75;4958464;28;20115;-79
2023/03/09 02:28:19;;;;;;;66.25;33.22;;;;;;;2.88;100.00;98449.78;4974662;28;20078;-79
2023/03/09 02:30:48;;;;;;;68.03;33.20;;;;;;;2.80;100.00;98453.19;4974854;28;20047;-79
2023/03/09 02:33:25;;;;;;;72.57;34.70;;;;;;;2.77;100.00;98463.84;4978943;28;20070;-80
2023/03/09 02:35:53;;;;;;;70.45;33.85;;;;;;;2.70;100.00;98456.91;4977734;28;20059;-79
2023/03/09 02:38:19;;;;;;;75.13;34.55;;;;;;;2.72;100.00;98453.19;4970395;28;20133;-78
2023/03/09 02:40:46;;;;;;;70.38;31.88;;;;;;;2.72;100.00;98465.28;4969922;28;20075;-78
2023/03/09 02:43:13;;;;;;;72.40;31.80;;;;;;;2.59;100.00;98468.31;4970753;28;20055;-77
2023/03/09 02:45:41;;;;;;;69.38;31.63;;;;;;;2.67;100.00;98473.50;4974496;28;20129;-78
2023/03/09 02:48:08;;;;;;;69.75;31.13;;;;;;;2.73;100.00;98480.63;4978285;28;20129;-79
2023/03/09 02:50:35;;;;;;;73.82;33.13;;;;;;;2.67;100.00;98473.50;4969007;28;20133;-78
2023/03/09 02:53:02;;;;;;;67.72;32.45;;;;;;;2.72;100.00;98491.91;4969379;28;20204;-78
2023/03/09 02:55:29;;;;;;;72.35;30.65;;;;;;;2.72;100.00;98497.09;4976104;28;20273;-78
2023/03/09 02:57:55;;;;;;;70.38;32.20;;;;;;;2.70;100.00;98493.03;4977017;28;20122;-77
2023/03/09 03:00:23;;;;;;;74.38;33.40;;;;;;;2.70;100.00;98491.28;4976161;28;20126;-78
2023/03/09 03:02:51;;;;;;;76.47;32.67;;;;;;;2.69;100.00;98509.50;4976651;28;20050;-79
2023/03/09 03:05:18;;;;;;;69.45;32.35;;;;;;;2.63;100.00;98514.31;4976293;28;20085;-78
2023/03/09 03:07:44;;;;;;;66.22;30.63;;;;;;;2.63;100.00;98524.66;4976140;28;20472;-78
2023/03/09 03:10:12;;;;;;;62.90;30.70;;;;;;;2.49;100.00;98502.00;4965758;28;20083;-78
2023/03/09 03:12:38;;;;;;;66.75;31.15;;;;;;;2.58;100.00;98520.91;4959599;28;20466;-79
2023/03/09 03:15:06;;;;;;;65.07;31.08;;;;;;;2.61;100.00;98516.25;4957726;28;20138;-78
2023/03/09 03:17:33;;;;;;;67.47;30.67;;;;;;;2.59;100.00;98530.28;4966301;28;20549;-79
2023/03/09 03:20:02;;;;;;;68.93;30.73;;;;;;;2.60;100.00;98519.81;4956948;28;20055;-78
2023/03/09 03:22:29;;;;;;;70.20;31.67;;;;;;;2.56;100.00;98534.00;4968879;28;20826;-79
2023/03/09 03:24:56;;;;;;;70.70;32.75;;;;;;;2.56;100.00;98540.91;4968395;28;20054;-79
2023/03/09 03:27:22;;;;;;;71.40;31.88;;;;;;;2.53;100.00;98541.22;4969311;28;20133;-79
2023/03/09 03:29:52;;;;;;;73.10;30.95;;;;;;;2.50;100.00;98550.09;4976477;28;20086;-80
2023/03/09 03:32:19;;;;;;;75.63;33.40;;;;;;;2.48;100.00;98556.38;4971200;28;20115;-79
2023/03/09 03:34:45;;;;;;;85.13;34.78;;;;;;;2.46;100.00;98566.03;4961994;28;20077;-78
2023/03/09 03:37:14;;;;;;;83.65;33.85;;;;;;;2.49;100.00;98566.56;4959091;28;20085;-78
2023/03/09 03:39:40;;;;;;;83.10;33.42;;;;;;;2.50;100.00;98564.78;4975841;28;20054;-79
2023/03/09 03:42:07;;;;;;;80.10;32.33;;;;;;;2.51;100.00;98561.22;4975398;28;20070;-77
2023/03/09 03:44:34;;;;;;;77.43;32.88;;;;;;;2.52;100.00;98565.44;4970643;28;20415;-79
2023/03/09 03:47:01;;;;;;;80.30;31.40;;;;;;;2.45;100.00;98567.81;4963191;28;20142;-79
2023/03/09 03:49:27;;;;;;;77.10;31.38;;;;;;;2.48;100.00;98566.72;4971239;28;20137;-79
2023/03/09 03:51:54;;;;;;;81.80;32.47;;;;;;;2.44;100.00;98576.53;4977175;28;20133;-79
2023/03/09 03:54:22;;;;;;;85.47;33.53;;;;;;;2.51;100.00;98587.06;4972419;28;20134;-79
2023/03/09 03:56:49;;;;;;;88.15;32.53;;;;;;;2.42;100.00;98595.72;4974324;28;20559;-79
2023/03/09 03:59:15;;;;;;;93.78;33.17;;;;;;;2.51;100.00;98605.13;4969902;28;20512;-78
2023/03/09 04:01:42;;;;;;;96.10;36.28;;;;;;;2.50;100.00;98606.91;4980038;28;20133;-79
2023/03/09 04:04:09;;;;;;;96.60;36.28;;;;;;;2.50;100.00;98612.06;4988409;23;20153;-80
2023/03/09 04:06:35;;;;;;;94.45;35.00;;;;;;;2.51;100.00;98620.59;4956058;28;20073;-79
2023/03/09 04:09:02;;;;;;;84.47;34.53;;;;;;;2.51;100.00;98628.34;4963312;28;20106;-79
2023/03/09 04:11:32;;;;;;;94.05;35.72;;;;;;;2.57;100.00;98632.91;4956405;28;20514;-78
2023/03/09 04:14:01;;;;;;;99.18;38.03;;;;;;;2.59;100.00;98636.16;4955363;28;20061;-78
2023/03/09 04:16:27;;;;;;;103.80;35.45;;;;;;;2.55;100.00;98629.66;4956047;28;20051;-80
2023/03/09 04:18:54;;;;;;;93.13;36.30;;;;;;;2.63;100.00;98647.78;4956198;28;20138;-80
2023/03/09 04:21:21;;;;;;;95.32;35.13;;;;;;;2.55;100.00;98651.13;4956178;28;20074;-80
2023/03/09 04:23:48;;;;;;;94.22;35.72;;;;;;;2.59;100.00;98661.97;4955931;28;20043;-79
2023/03/09 04:26:15;;;;;;;92.43;35.58;;;;;;;2.59;100.00;98657.63;4966972;28;20137;-77
2023/03/09 04:28:43;;;;;;;95.22;35.60;;;;;;;2.51;100.00;98649.00;4961738;28;20087;-77
2023/03/09 04:31:10;;;;;;;82.65;33.65;;;;;;;2.51;100.00;98649.00;4964304;28;20122;-79
2023/03/09 04:33:36;;;;;;;84.75;34.05;;;;;;;2.47;100.00;98650.28;4965026;28;20119;-78
2023/03/09 04:36:04;;;;;;;82.53;33.17;;;;;;;2.46;100.00;98652.03;4978081;28;20071;-78
2023/03/09 04:38:30;;;;;;;92.72;33.25;;;;;;;2.44;100.00;98653.16;4972160;28;20087;-80
2023/03/09 04:40:57;;;;;;;88.28;33.38;;;;;;;2.35;100.00;98643.78;4971797;28;20118;-79
2023/03/09 04:43:24;;;;;;;95.57;33.70;;;;;;;2.29;100.00;98643.41;4970410;28;20551;-79
2023/03/09 04:45:51;;;;;;;77.78;30.38;;;;;;;2.35;100.00;98661.84;4963324;28;20485;-79
2023/03/09 04:48:18;;;;;;;83.95;32.50;;;;;;;2.38;100.00;98661.50;4962990;28;20051;-79
2023/03/09 04:50:45;;;;;;;81.20;31.27;;;;;;;2.36;100.00;98668.63;4965265;28;20158;-78
2023/03/09 04:53:14;;;;;;;82.57;32.35;;;;;;;2.32;100.00;98663.75;4966405;28;20417;-79
2023/03/09 04:55:41;;;;;;;82.22;30.63;;;;;;;2.36;100.00;98656.53;4975255;28;20173;-78
2023/03/09 04:58:07;;;;;;;83.28;31.80;;;;;;;2.27;100.00;98660.81;4971495;28;20047;-78
2023/03/09 05:00:34;;;;;;;77.25;30.40;;;;;;;2.32;100.00;98671.50;4977101;28;20416;-79
2023/03/09 05:03:02;;;;;;;79.65;31.15;;;;;;;2.33;100.00;98673.13;4970439;28;20047;-79
2023/03/09 05:05:29;;;;;;;84.93;29.35;;;;;;;2.31;100.00;98674.22;4962793;28;20075;-78
2023/03/09 05:07:55;;;;;;;78.13;30.90;;;;;;;2.37;100.00;98678.75;4959727;28;20133;-80
2023/03/09 05:10:22;;;;;;;76.93;30.77;;;;;;;2.46;100.00;98692.53;4968104;28;20081;-79
2023/03/09 05:12:49;;;;;;;77.85;30.75;;;;;;;2.44;100.00;98697.84;4959631;28;20462;-78
2023/03/09 05:15:15;;;;;;;70.43;29.55;;;;;;;2.53;100.00;98691.78;4958532;28;20193;-78
2023/03/09 05:17:42;;;;;;;72.15;29.17;;;;;;;2.55;100.00;98702.78;4964943;28;20125;-80
2023/03/09 05:20:12;;;;;;;66.05;27.02;;;;;;;2.56;100.00;98708.75;4962713;28;20124;-77
2023/03/09 05:22:38;;;;;;;64.68;28.02;;;;;;;2.54;100.00;98708.91;4965046;28;20114;-79
2023/03/09 05:25:06;;;;;;;71.00;27.58;;;;;;;2.52;100.00;98712.59;4967398;28;20576;-80
2023/03/09 05:27:33;;;;;;;61.38;26.23;;;;;;;2.50;100.00;98711.94;4960240;28;20067;-79
2023/03/09 05:29:59;;;;;;;67.15;27.98;;;;;;;2.53;100.00;98719.38;4960304;28;20130;-78
2023/03/09 05:32:26;;;;;;;62.60;27.90;;;;;;;2.45;100.00;98701.25;4968924;28;20114;-79
2023/03/09 05:34:53;;;;;;;69.40;28.42;;;;;;;2.43;100.00;98713.50;4959514;28;20051;-79
2023/03/09 05:37:21;;;;;;;67.80;28.25;;;;;;;2.45;100.00;98716.72;4958971;28;20701;-78
2023/03/09 05:39:47;;;;;;;61.65;27.63;;;;;;;2.51;100.00;98726.47;4959447;28;20090;-79
2023/03/09 05:42:14;;;;;;;72.95;26.85;;;;;;;2.56;100.00;98734.56;4966962;28;20090;-80
2023/03/09 05:44:41;;;;;;;64.57;27.27;;;;;;;2.51;100.00;98731.63;4959513;28;20509;-80
2023/03/09 05:47:07;;;;;;;62.30;27.63;;;;;;;2.42;100.00;98715.25;4958675;28;20051;-79
2023/03/09 05:49:34;;;;;;;61.30;27.38;;;;;;;2.37;100.00;98724.41;4967762;28;20050;-78
2023/03/09 05:52:01;;;;;;;64.60;27.13;;;;;;;2.46;100.00;98723.50;4962868;28;20082;-81
2023/03/09 05:54:29;;;;;;;62.97;27.77;;;;;;;2.46;100.00;98708.03;4973488;28;20079;-79
2023/03/09 05:56:56;;;;;;;59.17;24.83;;;;;;;2.44;100.00;98715.91;4968636;28;20051;-81
2023/03/09 05:59:23;;;;;;;65.50;27.00;;;;;;;2.48;100.00;98726.75;4964447;28;20146;-80
2023/03/09 06:01:50;;;;;;;67.70;27.52;;;;;;;2.42;100.00;98727.34;4956669;28;20048;-81
2023/03/09 06:04:17;;;;;;;64.20;27.48;;;;;;;2.33;100.00;98721.34;4967819;28;20115;-79
2023/03/09 06:06:43;;;;;;;72.55;28.83;;;;;;;2.38;100.00;98741.53;4972432;28;20085;-79
2023/03/09 06:09:10;;;;;;;69.25;27.70;;;;;;;2.51;100.00;98757.44;4972173;28;20055;-80
2023/03/09 06:11:38;;;;;;;70.80;30.17;;;;;;;2.45;100.00;98748.53;4976824;28;20098;-80
2023/03/09 06:14:05;;;;;;;68.93;28.25;;;;;;;2.39;100.00;98741.38;4971116;28;20110;-83
2023/03/09 06:16:32;;;;;;;66.38;28.05;;;;;;;2.51;100.00;98772.94;4972706;28;20066;-81
2023/03/09 06:18:59;;;;;;;70.07;28.10;;;;;;;2.52;100.00;98772.78;4975421;28;20130;-78
2023/03/09 06:21:25;;;;;;;64.22;26.85;;;;;;;2.54;100.00;98782.97;4963595;28;20055;-80
2023/03/09 06:23:53;;;;;;;72.10;27.52;;;;;;;2.57;100.00;98778.31;4978242;28;20115;-81
2023/03/09 06:26:20;;;;;;;62.70;26.88;;;;;;;2.59;100.00;98785.91;4970108;28;20082;-80
2023/03/09 06:28:48;;;;;;;66.95;27.08;;;;;;;2.54;100.00;98798.44;4958605;28;20102;-80
2023/03/09 06:31:16;;;;;;;60.85;27.38;;;;;;;2.43;100.00;98791.75;4959704;28;20074;-80
2023/03/09 06:33:44;;;;;;;62.70;27.30;;;;;;;2.45;100.00;98800.16;4960197;28;20051;-79
2023/03/09 06:36:12;;;;;;;58.65;25.52;;;;;;;2.48;100.00;98799.84;4959973;28;20055;-79
2023/03/09 06:38:39;;;;;;;58.30;25.95;;;;;;;2.45;100.00;98812.25;4958174;28;20086;-81
2023/03/09 06:41:06;;;;;;;60.58;25.70;;;;;;;2.56;100.00;98812.03;4966645;28;20095;-81
2023/03/09 06:43:32;;;;;;;57.90;26.25;;;;;;;2.58;100.00;98820.44;4958278;28;20051;-81
2023/03/09 06:46:00;;;;;;;66.50;27.92;;;;;;;2.59;100.00;98807.38;4960388;28;20106;-81
2023/03/09 06:48:27;;;;;;;63.70;26.70;;;;;;;2.63;100.00;98816.44;4963977;28;20051;-82
2023/03/09 06:50:54;;;;;;;56.72;24.63;;;;;;;2.56;100.00;98809.44;4969653;28;20142;-78
2023/03/09 06:53:20;;;;;;;52.30;24.70;;;;;;;2.63;100.00;98823.38;4971790;28;20074;-82
2023/03/09 06:55:47;;;;;;;55.45;24.48;;;;;;;2.63;100.00;98818.22;4963464;28;20067;-81
2023/03/09 06:58:13;;;;;;;49.60;23.10;;;;;;;2.61;100.00;98815.78;4972969;28;20082;-81
2023/03/09 07:00:43;;;;;;;47.53;23.05;;;;;;;2.62;100.00;98824.34;4960596;28;20051;-79
2023/03/09 07:03:18;;;;;;;50.17;22.38;;;;;;;2.71;100.00;98846.69;4961371;28;20457;-80
2023/03/09 07:05:45;;;;;;;46.40;22.48;;;;;;;2.81;100.00;98847.41;4964942;28;20093;-79
2023/03/09 07:08:16;;;;;;;43.80;21.77;;;;;;;2.81;100.00;98857.75;4948412;28;20058;-79
2023/03/09 07:10:42;;;;;;;44.83;21.17;;;;;;;2.91;100.00;98855.06;4961380;28;20123;-80
2023/03/09 07:13:14;;;;;;;54.25;24.55;;;;;;;2.92;100.00;98857.50;4979092;28;20082;-78
2023/03/09 07:15:46;;;;;;;56.55;25.15;;;;;;;2.89;100.00;98850.03;4964286;28;20049;-79
2023/03/09 07:21:34;;;;;;;;;;;;;;;2.91;100.00;98867.97;4972304;28;20502;-80
2023/03/09 07:24:15;;;;;;;45.17;21.58;;;;;;;2.87;100.00;98862.28;4959704;28;19994;-80
2023/03/09 07:26:42;;;;;;;51.50;23.65;;;;;;;3.05;100.00;98879.53;4966770;28;20449;-79
2023/03/09 07:29:11;;;;;;;44.47;21.83;;;;;;;3.07;100.00;98888.78;4959163;28;20055;-78
2023/03/09 07:31:38;;;;;;;45.72;21.65;;;;;;;3.03;100.00;98865.97;4963395;28;20113;-80
2023/03/09 07:34:06;;;;;;;43.70;19.95;;;;;;;3.14;100.00;98878.66;4957081;28;20220;-81
2023/03/09 07:36:43;;;;;;;38.03;20.00;;;;;;;3.26;100.00;98892.94;4964164;28;20050;-79
2023/03/09 07:39:12;;;;;;;40.88;20.58;;;;;;;3.31;100.00;98894.09;4951762;28;20059;-80
2023/03/09 07:41:41;;;;;;;37.97;17.48;;;;;;;3.35;100.00;98892.00;4957061;28;20054;-81
2023/03/09 07:44:15;;;;;;;38.60;19.33;;;;;;;3.39;100.00;98895.09;4949632;28;20529;-80
2023/03/09 07:46:44;;;;;;;39.35;20.98;;;;;;;3.42;100.00;98903.38;4950633;28;20052;-79
2023/03/09 07:49:12;;;;;;;37.75;21.40;;;;;;;3.49;100.00;98908.75;4949551;28;20086;-79
2023/03/09 07:51:40;;;;;;;39.38;21.13;;;;;;;3.47;100.00;98903.72;4947053;29;20054;-82
2023/03/09 07:54:10;;;;;;;40.22;20.38;;;;;;;3.58;100.00;98913.81;4954138;28;20078;-80
2023/03/09 07:56:39;;;;;;;37.05;20.00;;;;;;;3.67;100.00;98918.06;4951672;28;20063;-81
2023/03/09 07:59:06;;;;;;;36.42;19.95;;;;;;;3.64;100.00;98917.56;4955337;28;20086;-80
2023/03/09 08:01:37;;;;;;;35.85;19.65;;;;;;;3.67;100.00;98922.44;4956960;28;20070;-81
2023/03/09 08:04:09;;;;;;;35.40;19.27;;;;;;;3.71;100.00;98922.94;4957540;28;20196;-80
2023/03/09 08:06:39;;;;;;;35.10;19.17;;;;;;;3.78;100.00;98913.59;4958825;28;20044;-79
2023/03/09 08:09:21;;;;;;;35.63;20.55;;;;;;;3.91;100.00;98934.66;4954955;28;20454;-79
2023/03/09 08:11:57;;;;;;;32.77;19.13;;;;;;;3.89;100.00;98936.59;4960213;28;20048;-81
2023/03/09 08:17:29;;;;;;;;;;;;;;;;;;;;;
2023/03/09 08:19:59;;;;;;;30.45;17.33;;;;;;;4.08;100.00;98951.91;4959461;28;20059;-80
2023/03/09 08:22:33;;;;;;;28.75;17.50;;;;;;;4.10;100.00;98949.16;4963699;28;20111;-79
2023/03/09 08:24:59;;;;;;;31.23;18.02;;;;;;;4.02;100.00;98952.53;4961233;28;20058;-78
2023/03/09 08:27:29;;;;;;;33.20;18.80;;;;;;;4.07;100.00;98955.47;4960283;28;20484;-78
2023/03/09 08:29:57;;;;;;;31.70;17.52;;;;;;;4.13;100.00;98954.84;4961322;28;20146;-78
2023/03/09 08:32:27;;;;;;;41.85;20.58;;;;;;;4.33;100.00;98973.50;4956460;28;20067;-79
2023/03/09 08:34:57;;;;;;;32.30;18.42;;;;;;;4.44;100.00;98967.22;4955909;28;20137;-79
2023/03/09 08:37:30;;;;;;;30.10;17.20;;;;;;;4.33;100.00;98976.91;4957693;28;20481;-79
2023/03/09 08:40:03;;;;;;;32.80;18.38;;;;;;;4.44;100.00;98982.78;4959544;28;20083;-80
2023/03/09 08:42:35;;;;;;;25.98;16.40;;;;;;;4.57;100.00;98989.13;4962088;28;20141;-78
2023/03/09 08:45:03;;;;;;;25.05;14.75;;;;;;;4.48;100.00;98992.66;4957007;28;20387;-80
2023/03/09 08:47:30;;;;;;;20.90;13.95;;;;;;;4.51;100.00;98996.72;4955204;28;20059;-78
2023/03/09 08:49:59;;;;;;;24.13;15.45;;;;;;;4.56;100.00;98999.66;4955182;28;20508;-78
2023/03/09 08:52:34;;;;;;;24.00;14.43;;;;;;;4.51;100.00;99004.50;4964814;28;20049;-78
2023/03/09 08:55:03;;;;;;;24.27;14.63;;;;;;;4.62;100.00;99014.56;4963569;28;20395;-79
2023/03/09 08:57:30;;;;;;;22.00;14.70;;;;;;;4.56;100.00;99013.41;4958544;28;20106;-80
2023/03/09 08:59:56;;;;;;;23.55;14.15;;;;;;;4.66;100.00;99003.75;4959654;28;20091;-79
2023/03/09 09:02:24;;;;;;;23.27;14.90;;;;;;;4.71;100.00;99021.41;4956245;28;20047;-79
2023/03/09 09:04:51;;;;;;;23.00;12.95;;;;;;;4.74;100.00;99020.25;4959105;28;20078;-82
2023/03/09 09:07:20;;;;;;;19.65;12.95;;;;;;;4.61;100.00;99031.91;4968949;28;20051;-80
2023/03/09 09:09:50;;;;;;;20.75;12.38;;;;;;;4.58;100.00;99028.81;4958465;28;20061;-78
2023/03/09 09:12:21;;;;;;;20.52;13.85;;;;;;;4.63;100.00;99029.16;4959308;28;20067;-81
2023/03/09 09:14:50;;;;;;;18.33;12.27;;;;;;;4.64;100.00;99043.72;4958316;28;20083;-77
2023/03/09 09:17:16;;;;;;;20.45;12.60;;;;;;;4.68;100.00;99047.63;4966005;28;20075;-78
2023/03/09 09:19:44;;;;;;;22.60;14.23;;;;;;;4.70;100.00;99047.47;4958408;28;20510;-78
2023/03/09 09:22:11;;;;;;;23.17;14.05;;;;;;;4.76;100.00;99060.59;4971241;28;20104;-82
2023/03/09 09:24:38;;;;;;;25.35;15.93;;;;;;;4.64;100.00;99054.91;4961954;28;20073;-80
2023/03/09 09:27:05;;;;;;;24.40;15.88;;;;;;;4.55;100.00;99065.38;4977192;28;20081;-81
2023/03/09 09:29:34;;;;;;;23.95;15.90;;;;;;;4.51;100.00;99069.25;4980588;28;20047;-80
2023/03/09 09:32:00;;;;;;;24.98;14.95;;;;;;;4.50;100.00;99057.25;4967865;28;20043;-81
2023/03/09 09:34:30;;;;;;;24.65;16.23;;;;;;;4.57;100.00;99066.84;4968266;28;20065;-78
2023/03/09 09:36:57;;;;;;;25.70;16.58;;;;;;;4.68;100.00;99070.94;4968804;28;20059;-79
2023/03/09 09:39:24;;;;;;;27.63;18.15;;;;;;;4.76;100.00;99073.53;4962074;28;20502;-81
2023/03/09 09:41:53;;;;;;;23.75;15.85;;;;;;;4.61;100.00;99072.53;4961039;28;20085;-82
2023/03/09 09:44:24;;;;;;;24.33;15.75;;;;;;;4.83;100.00;99071.94;4964301;28;20146;-80
2023/03/09 09:46:57;;;;;;;23.35;15.75;;;;;;;4.95;100.00;99080.25;4962400;28;20558;-80
2023/03/09 09:49:27;;;;;;;20.25;14.40;;;;;;;5.03;100.00;99092.44;4960841;28;20090;-81
2023/03/09 09:52:10;;;;;;;26.35;14.63;;;;;;;5.12;100.00;99100.06;4966435;28;20358;-80
2023/03/09 09:54:47;;;;;;;21.40;14.63;;;;;;;4.93;100.00;99098.56;4971877;28;20236;-77
2023/03/09 09:57:18;;;;;;;22.30;14.73;;;;;;;4.93;100.00;99100.34;4960315;28;20665;-80
2023/03/09 09:59:55;;;;;;;21.20;14.43;;;;;;;5.05;100.00;99090.50;4967078;28;20343;-79
2023/03/09 10:02:43;;;;;;;21.27;15.40;;;;;;;5.12;100.00;99083.72;4959334;28;20067;-81
2023/03/09 10:05:21;;;;;;;21.55;14.25;;;;;;;5.59;100.00;99105.50;4960841;28;20150;-81
2023/03/09 10:07:49;;;;;;;22.35;15.55;;;;;;;5.70;100.00;99106.94;4963622;28;20059;-81
2023/03/09 10:10:21;;;;;;;18.85;13.27;;;;;;;5.58;100.00;99109.06;4958929;28;20134;-80
2023/03/09 10:12:48;;;;;;;22.83;13.85;;;;;;;5.54;100.00;99105.16;4967671;28;20071;-81
2023/03/09 10:15:22;;;;;;;20.70;14.00;;;;;;;5.49;100.00;99120.41;4964801;28;20145;-79
2023/03/09 10:17:54;;;;;;;20.42;13.45;;;;;;;5.43;100.00;99121.03;4959485;28;20047;-81
2023/03/09 10:20:26;;;;;;;21.08;13.73;;;;;;;5.47;100.00;99126.72;4959397;28;20093;-80
2023/03/09 10:22:56;;;;;;;20.42;14.63;;;;;;;5.64;100.00;99118.81;4959671;28;20055;-78
2023/03/09 10:25:27;;;;;;;16.55;13.00;;;;;;;5.50;100.00;99131.59;4965070;28;20051;-81
2023/03/09 10:28:00;;;;;;;18.27;13.02;;;;;;;5.60;100.00;99132.25;4962292;28;20132;-81
2023/03/09 10:30:38;;;;;;;19.63;13.75;;;;;;;5.57;100.00;99123.00;4967770;28;20138;-81
2023/03/09 10:33:16;;;;;;;20.98;14.32;;;;;;;5.75;100.00;99129.81;4958200;28;20098;-82
2023/03/09 10:35:53;;;;;;;19.88;14.63;;;;;;;5.74;100.00;99129.00;4958253;28;20474;-81
2023/03/09 10:38:24;;;;;;;17.63;13.63;;;;;;;5.87;100.00;99133.72;4961643;28;20085;-80
2023/03/09 10:40:59;;;;;;;20.67;15.23;;;;;;;5.91;100.00;99129.84;4965173;28;20154;-82
2023/03/09 10:43:30;;;;;;;21.45;12.93;;;;;;;5.99;100.00;99148.03;4965314;28;20569;-80
2023/03/09 10:46:20;;;;;;;18.98;14.60;;;;;;;5.95;100.00;99157.94;4958790;28;20043;-82
2023/03/09 10:49:33;;;;;;;18.70;13.50;;;;;;;5.62;100.00;99131.13;4961258;28;20055;-80
2023/03/09 10:52:38;;;;;;;20.77;15.02;;;;;;;5.80;100.00;99149.13;4951997;28;20057;-78
2023/03/09 10:55:40;;;;;;;21.52;15.00;;;;;;;5.78;100.00;99160.63;4967142;28;20066;-82
2023/03/09 10:58:17;;;;;;;20.02;14.40;;;;;;;5.78;100.00;99125.13;4957553;28;20062;-82
2023/03/09 11:00:56;;;;;;;19.50;14.48;;;;;;;6.06;100.00;99156.81;4957927;28;20059;-79
2023/03/09 11:03:32;;;;;;;20.88;14.10;;;;;;;5.98;100.00;99151.59;4957313;28;20243;-80
2023/03/09 11:06:37;;;;;;;24.33;15.93;;;;;;;5.93;100.00;99135.69;4965414;28;20139;-80
2023/03/09 11:09:25;;;;;;;20.23;14.57;;;;;;;6.33;100.00;99146.03;4936721;28;20494;-81
2023/03/09 11:12:13;;;;;;;19.25;14.30;;;;;;;6.67;100.00;99147.59;4961267;28;20051;-82
2023/03/09 11:14:50;;;;;;;19.13;12.75;;;;;;;6.98;100.00;99135.47;4965517;28;20295;-76
2023/03/09 11:17:44;;;;;;;18.50;12.88;;;;;;;6.71;100.00;99132.47;4957707;28;20071;-80
2023/03/09 11:20:32;;;;;;;18.65;12.73;;;;;;;6.91;100.00;99147.50;4959368;28;20138;-82
2023/03/09 11:29:37;;;;;;;18.25;12.00;;;;;;;7.03;100.00;99142.75;4945294;28;20166;-81
2023/03/09 11:32:04;;;;;;;19.92;12.93;;;;;;;7.08;100.00;99145.66;4957717;28;20066;-80
2023/03/09 11:34:37;;;;;;;20.23;13.07;;;;;;;7.19;100.00;99147.06;4956271;28;20052;-80
2023/03/09 11:37:43;;;;;;;17.08;12.00;;;;;;;6.78;100.00;99118.63;4958296;28;20173;-81
2023/03/09 11:40:14;;;;;;;15.85;11.52;;;;;;;7.04;100.00;99143.56;4967706;28;20070;-80
2023/03/09 11:42:50;;;;;;;18.27;13.05;;;;;;;7.09;100.00;99149.84;4962385;28;20070;-81
2023/03/09 11:45:21;;;;;;;20.63;12.85;;;;;;;7.35;100.00;99146.16;4961297;28;20043;-81